sensor_id;sensor_type;location;lat;lon;timestamp;temperature;humidity
11505;DHT22;5809;53.262;10.408;2022-07-30T00:03:16;18.20;99.90
11505;DHT22;5809;53.262;10.408;2022-07-30T00:08:10;18.20;99.90
11505;DHT22;5809;53.262;10.408;2022-07-30T00:13:07;18.20;99.90
11505;DHT22;5809;53.262;10.408;2022-07-30T00:18:01;18.20;99.90
11505;DHT22;5809;53.262;10.408;2022-07-30T00:22:55;14.70;99.90
11505;DHT22;5809;53.262;10.408;2022-07-30T00:25:23;18.20;99.90
11505;DHT22;5809;53.262;10.408;2022-07-30T00:30:19;18.20;99.90
11505;DHT22;5809;53.262;10.408;2022-07-30T00:35:13;18.20;99.90
11505;DHT22;5809;53.262;10.408;2022-07-30T00:42:37;18.20;99.90
11505;DHT22;5809;53.262;10.408;2022-07-30T00:45:05;18.20;99.90
11505;DHT22;5809;53.262;10.408;2022-07-30T00:47:33;18.20;99.90
11505;DHT22;5809;53.262;10.408;2022-07-30T00:50:00;18.10;99.90
11505;DHT22;5809;53.262;10.408;2022-07-30T01:02:18;18.10;99.90
11505;DHT22;5809;53.262;10.408;2022-07-30T01:04:47;18.00;99.90
11505;DHT22;5809;53.262;10.408;2022-07-30T01:12:09;17.80;99.90
11505;DHT22;5809;53.262;10.408;2022-07-30T01:25:05;17.70;99.90
11505;DHT22;5809;53.262;10.408;2022-07-30T01:32:35;17.70;99.90
11505;DHT22;5809;53.262;10.408;2022-07-30T01:35:06;17.70;99.90
11505;DHT22;5809;53.262;10.408;2022-07-30T01:44:59;17.70;99.90
11505;DHT22;5809;53.262;10.408;2022-07-30T01:52:22;17.80;99.90
11505;DHT22;5809;53.262;10.408;2022-07-30T01:54:51;17.80;99.90
11505;DHT22;5809;53.262;10.408;2022-07-30T02:19:56;17.80;99.90
11505;DHT22;5809;53.262;10.408;2022-07-30T02:22:27;17.80;99.90
11505;DHT22;5809;53.262;10.408;2022-07-30T02:27:29;17.80;99.90
11505;DHT22;5809;53.262;10.408;2022-07-30T02:29:59;17.80;99.90
11505;DHT22;5809;53.262;10.408;2022-07-30T02:32:33;17.70;99.90
11505;DHT22;5809;53.262;10.408;2022-07-30T02:35:06;17.70;99.90
11505;DHT22;5809;53.262;10.408;2022-07-30T02:37:36;17.70;99.90
11505;DHT22;5809;53.262;10.408;2022-07-30T02:40:04;17.60;99.90
11505;DHT22;5809;53.262;10.408;2022-07-30T02:42:32;17.60;99.90
11505;DHT22;5809;53.262;10.408;2022-07-30T02:45:00;17.60;99.90
11505;DHT22;5809;53.262;10.408;2022-07-30T02:47:29;17.60;99.90
11505;DHT22;5809;53.262;10.408;2022-07-30T02:49:57;17.60;99.90
11505;DHT22;5809;53.262;10.408;2022-07-30T02:52:27;17.60;99.90
11505;DHT22;5809;53.262;10.408;2022-07-30T02:54:56;17.60;99.90
11505;DHT22;5809;53.262;10.408;2022-07-30T02:57:24;17.60;99.90
11505;DHT22;5809;53.262;10.408;2022-07-30T02:59:52;17.60;99.90
11505;DHT22;5809;53.262;10.408;2022-07-30T03:02:21;17.60;99.90
11505;DHT22;5809;53.262;10.408;2022-07-30T03:04:51;17.60;99.90
11505;DHT22;5809;53.262;10.408;2022-07-30T03:07:20;17.60;99.90
11505;DHT22;5809;53.262;10.408;2022-07-30T03:09:48;17.60;99.90
11505;DHT22;5809;53.262;10.408;2022-07-30T03:12:16;17.60;99.90
11505;DHT22;5809;53.262;10.408;2022-07-30T03:14:44;17.60;99.90
11505;DHT22;5809;53.262;10.408;2022-07-30T03:17:12;17.50;99.90
11505;DHT22;5809;53.262;10.408;2022-07-30T03:19:41;17.50;99.90
11505;DHT22;5809;53.262;10.408;2022-07-30T03:22:11;17.50;99.90
11505;DHT22;5809;53.262;10.408;2022-07-30T03:24:42;17.40;99.90
11505;DHT22;5809;53.262;10.408;2022-07-30T03:27:09;17.40;99.90
11505;DHT22;5809;53.262;10.408;2022-07-30T03:29:39;17.40;99.90
11505;DHT22;5809;53.262;10.408;2022-07-30T03:32:08;17.40;99.90
11505;DHT22;5809;53.262;10.408;2022-07-30T03:34:35;17.30;99.90
11505;DHT22;5809;53.262;10.408;2022-07-30T03:37:03;17.20;99.90
11505;DHT22;5809;53.262;10.408;2022-07-30T03:39:33;17.20;99.90
11505;DHT22;5809;53.262;10.408;2022-07-30T03:42:01;17.10;99.90
11505;DHT22;5809;53.262;10.408;2022-07-30T03:44:28;17.10;99.90
11505;DHT22;5809;53.262;10.408;2022-07-30T03:46:56;17.10;99.90
11505;DHT22;5809;53.262;10.408;2022-07-30T03:49:23;17.00;99.90
11505;DHT22;5809;53.262;10.408;2022-07-30T03:51:51;17.00;99.90
11505;DHT22;5809;53.262;10.408;2022-07-30T03:54:18;17.00;99.90
11505;DHT22;5809;53.262;10.408;2022-07-30T03:56:47;17.00;99.90
11505;DHT22;5809;53.262;10.408;2022-07-30T03:59:14;17.00;99.90
11505;DHT22;5809;53.262;10.408;2022-07-30T04:01:41;16.90;99.90
11505;DHT22;5809;53.262;10.408;2022-07-30T04:04:10;16.90;99.90
11505;DHT22;5809;53.262;10.408;2022-07-30T04:06:37;16.90;99.90
11505;DHT22;5809;53.262;10.408;2022-07-30T04:09:06;16.90;99.90
11505;DHT22;5809;53.262;10.408;2022-07-30T04:11:34;16.90;99.90
11505;DHT22;5809;53.262;10.408;2022-07-30T04:14:02;16.90;99.90
11505;DHT22;5809;53.262;10.408;2022-07-30T04:16:35;16.90;99.90
11505;DHT22;5809;53.262;10.408;2022-07-30T04:19:04;16.90;99.90
11505;DHT22;5809;53.262;10.408;2022-07-30T04:21:34;16.90;99.90
11505;DHT22;5809;53.262;10.408;2022-07-30T04:24:02;16.90;99.90
11505;DHT22;5809;53.262;10.408;2022-07-30T04:26:31;16.90;99.90
11505;DHT22;5809;53.262;10.408;2022-07-30T04:28:59;16.90;99.90
11505;DHT22;5809;53.262;10.408;2022-07-30T04:31:28;17.00;99.90
11505;DHT22;5809;53.262;10.408;2022-07-30T04:34:00;17.00;99.90
11505;DHT22;5809;53.262;10.408;2022-07-30T04:36:27;17.00;99.90
11505;DHT22;5809;53.262;10.408;2022-07-30T04:38:54;17.10;99.90
11505;DHT22;5809;53.262;10.408;2022-07-30T04:41:20;17.10;99.90
11505;DHT22;5809;53.262;10.408;2022-07-30T04:43:47;17.10;99.90
11505;DHT22;5809;53.262;10.408;2022-07-30T04:46:14;17.10;99.90
11505;DHT22;5809;53.262;10.408;2022-07-30T04:48:43;17.20;99.90
11505;DHT22;5809;53.262;10.408;2022-07-30T04:51:12;13.90;99.90
11505;DHT22;5809;53.262;10.408;2022-07-30T04:53:41;17.20;99.90
11505;DHT22;5809;53.262;10.408;2022-07-30T04:56:10;17.20;99.90
11505;DHT22;5809;53.262;10.408;2022-07-30T04:58:38;17.30;99.90
11505;DHT22;5809;53.262;10.408;2022-07-30T05:01:07;17.30;99.90
11505;DHT22;5809;53.262;10.408;2022-07-30T05:03:35;17.30;99.90
11505;DHT22;5809;53.262;10.408;2022-07-30T05:06:06;17.30;99.90
11505;DHT22;5809;53.262;10.408;2022-07-30T05:08:34;17.40;99.90
11505;DHT22;5809;53.262;10.408;2022-07-30T05:11:01;17.40;99.90
11505;DHT22;5809;53.262;10.408;2022-07-30T05:13:28;17.40;99.90
11505;DHT22;5809;53.262;10.408;2022-07-30T05:15:55;17.40;99.90
11505;DHT22;5809;53.262;10.408;2022-07-30T05:18:22;17.50;99.90
11505;DHT22;5809;53.262;10.408;2022-07-30T05:20:49;17.60;99.90
11505;DHT22;5809;53.262;10.408;2022-07-30T05:23:17;17.60;99.90
11505;DHT22;5809;53.262;10.408;2022-07-30T05:25:44;17.60;99.90
11505;DHT22;5809;53.262;10.408;2022-07-30T05:28:11;17.70;99.90
11505;DHT22;5809;53.262;10.408;2022-07-30T05:30:38;17.80;99.90
11505;DHT22;5809;53.262;10.408;2022-07-30T05:33:05;17.90;99.90
11505;DHT22;5809;53.262;10.408;2022-07-30T05:35:32;18.00;99.90
11505;DHT22;5809;53.262;10.408;2022-07-30T05:37:59;18.00;99.90
11505;DHT22;5809;53.262;10.408;2022-07-30T05:40:27;18.10;99.90
11505;DHT22;5809;53.262;10.408;2022-07-30T05:42:54;18.20;99.90
11505;DHT22;5809;53.262;10.408;2022-07-30T05:45:21;18.30;99.90
11505;DHT22;5809;53.262;10.408;2022-07-30T05:47:48;18.40;99.90
11505;DHT22;5809;53.262;10.408;2022-07-30T05:50:15;18.50;99.90
11505;DHT22;5809;53.262;10.408;2022-07-30T05:52:42;18.50;99.90
11505;DHT22;5809;53.262;10.408;2022-07-30T05:55:09;18.50;99.90
11505;DHT22;5809;53.262;10.408;2022-07-30T05:57:38;18.60;99.90
11505;DHT22;5809;53.262;10.408;2022-07-30T06:00:08;18.70;99.90
11505;DHT22;5809;53.262;10.408;2022-07-30T06:02:35;18.70;99.90
11505;DHT22;5809;53.262;10.408;2022-07-30T06:05:04;18.90;99.90
11505;DHT22;5809;53.262;10.408;2022-07-30T06:07:31;18.80;99.90
11505;DHT22;5809;53.262;10.408;2022-07-30T06:09:58;18.90;99.90
11505;DHT22;5809;53.262;10.408;2022-07-30T06:12:26;19.00;99.90
11505;DHT22;5809;53.262;10.408;2022-07-30T06:14:55;19.10;99.90
11505;DHT22;5809;53.262;10.408;2022-07-30T06:17:22;19.20;99.90
11505;DHT22;5809;53.262;10.408;2022-07-30T06:19:49;19.20;99.90
11505;DHT22;5809;53.262;10.408;2022-07-30T06:22:17;19.20;99.90
11505;DHT22;5809;53.262;10.408;2022-07-30T06:24:44;19.20;99.90
11505;DHT22;5809;53.262;10.408;2022-07-30T06:27:11;19.30;99.90
11505;DHT22;5809;53.262;10.408;2022-07-30T06:29:38;19.20;99.90
11505;DHT22;5809;53.262;10.408;2022-07-30T06:32:07;19.30;99.90
11505;DHT22;5809;53.262;10.408;2022-07-30T06:34:34;19.30;99.90
11505;DHT22;5809;53.262;10.408;2022-07-30T06:37:01;19.40;99.90
11505;DHT22;5809;53.262;10.408;2022-07-30T06:39:27;19.60;99.90
11505;DHT22;5809;53.262;10.408;2022-07-30T06:41:54;19.70;99.90
11505;DHT22;5809;53.262;10.408;2022-07-30T06:44:21;19.90;99.90
11505;DHT22;5809;53.262;10.408;2022-07-30T06:46:48;20.00;99.90
11505;DHT22;5809;53.262;10.408;2022-07-30T06:49:17;20.10;99.90
11505;DHT22;5809;53.262;10.408;2022-07-30T06:51:44;20.30;99.90
11505;DHT22;5809;53.262;10.408;2022-07-30T06:54:11;20.40;99.90
11505;DHT22;5809;53.262;10.408;2022-07-30T06:56:38;20.50;99.90
11505;DHT22;5809;53.262;10.408;2022-07-30T06:59:05;20.40;99.90
11505;DHT22;5809;53.262;10.408;2022-07-30T07:01:32;20.30;99.90
11505;DHT22;5809;53.262;10.408;2022-07-30T07:03:59;20.30;99.90
11505;DHT22;5809;53.262;10.408;2022-07-30T07:06:27;20.40;99.90
11505;DHT22;5809;53.262;10.408;2022-07-30T07:08:54;20.50;99.90
11505;DHT22;5809;53.262;10.408;2022-07-30T07:11:21;20.70;99.90
11505;DHT22;5809;53.262;10.408;2022-07-30T07:13:48;20.60;99.90
11505;DHT22;5809;53.262;10.408;2022-07-30T07:16:15;20.80;99.90
11505;DHT22;5809;53.262;10.408;2022-07-30T07:18:46;20.80;99.90
11505;DHT22;5809;53.262;10.408;2022-07-30T07:21:13;21.10;99.90
11505;DHT22;5809;53.262;10.408;2022-07-30T07:23:41;21.60;99.90
11505;DHT22;5809;53.262;10.408;2022-07-30T07:26:09;21.80;99.90
11505;DHT22;5809;53.262;10.408;2022-07-30T07:28:37;21.80;99.90
11505;DHT22;5809;53.262;10.408;2022-07-30T07:31:04;21.80;99.90
11505;DHT22;5809;53.262;10.408;2022-07-30T07:33:31;21.90;99.90
11505;DHT22;5809;53.262;10.408;2022-07-30T07:35:58;21.70;99.90
11505;DHT22;5809;53.262;10.408;2022-07-30T07:38:25;21.60;99.90
11505;DHT22;5809;53.262;10.408;2022-07-30T07:40:54;21.40;99.90
11505;DHT22;5809;53.262;10.408;2022-07-30T07:43:21;21.40;99.90
11505;DHT22;5809;53.262;10.408;2022-07-30T07:45:49;21.40;99.90
11505;DHT22;5809;53.262;10.408;2022-07-30T07:48:17;21.20;99.90
11505;DHT22;5809;53.262;10.408;2022-07-30T07:50:44;21.20;99.90
11505;DHT22;5809;53.262;10.408;2022-07-30T07:53:11;21.10;99.90
11505;DHT22;5809;53.262;10.408;2022-07-30T07:55:38;21.10;99.90
11505;DHT22;5809;53.262;10.408;2022-07-30T07:58:06;21.20;99.90
11505;DHT22;5809;53.262;10.408;2022-07-30T08:00:36;21.30;99.90
11505;DHT22;5809;53.262;10.408;2022-07-30T08:03:03;21.20;99.90
11505;DHT22;5809;53.262;10.408;2022-07-30T08:05:30;21.30;99.90
11505;DHT22;5809;53.262;10.408;2022-07-30T08:07:57;21.30;99.90
11505;DHT22;5809;53.262;10.408;2022-07-30T08:10:24;21.40;99.90
11505;DHT22;5809;53.262;10.408;2022-07-30T08:12:51;21.90;99.90
11505;DHT22;5809;53.262;10.408;2022-07-30T08:15:20;22.60;99.90
11505;DHT22;5809;53.262;10.408;2022-07-30T08:17:47;23.10;99.90
11505;DHT22;5809;53.262;10.408;2022-07-30T08:20:14;23.60;99.90
11505;DHT22;5809;53.262;10.408;2022-07-30T08:22:41;24.10;99.90
11505;DHT22;5809;53.262;10.408;2022-07-30T08:25:09;24.40;99.90
11505;DHT22;5809;53.262;10.408;2022-07-30T08:30:03;25.30;99.90
11505;DHT22;5809;53.262;10.408;2022-07-30T08:32:31;25.70;99.90
11505;DHT22;5809;53.262;10.408;2022-07-30T08:37:25;25.80;99.90
11505;DHT22;5809;53.262;10.408;2022-07-30T08:39:52;26.40;99.90
11505;DHT22;5809;53.262;10.408;2022-07-30T08:44:48;26.10;99.90
11505;DHT22;5809;53.262;10.408;2022-07-30T08:47:21;26.60;99.90
11505;DHT22;5809;53.262;10.408;2022-07-30T08:49:50;26.50;99.90
11505;DHT22;5809;53.262;10.408;2022-07-30T08:57:13;26.40;99.90
11505;DHT22;5809;53.262;10.408;2022-07-30T08:59:40;26.10;99.90
11505;DHT22;5809;53.262;10.408;2022-07-30T09:02:08;26.60;99.90
11505;DHT22;5809;53.262;10.408;2022-07-30T09:04:35;27.50;99.90
11505;DHT22;5809;53.262;10.408;2022-07-30T09:07:04;27.60;99.90
11505;DHT22;5809;53.262;10.408;2022-07-30T09:09:31;27.90;99.90
11505;DHT22;5809;53.262;10.408;2022-07-30T09:11:58;28.20;99.90
11505;DHT22;5809;53.262;10.408;2022-07-30T09:14:25;28.70;99.90
11505;DHT22;5809;53.262;10.408;2022-07-30T09:16:55;29.40;99.90
11505;DHT22;5809;53.262;10.408;2022-07-30T09:19:22;29.40;99.90
11505;DHT22;5809;53.262;10.408;2022-07-30T09:21:56;29.60;99.90
11505;DHT22;5809;53.262;10.408;2022-07-30T09:24:25;30.10;99.90
11505;DHT22;5809;53.262;10.408;2022-07-30T09:26:54;30.20;99.90
11505;DHT22;5809;53.262;10.408;2022-07-30T09:29:23;30.70;99.90
11505;DHT22;5809;53.262;10.408;2022-07-30T09:31:55;31.00;99.90
11505;DHT22;5809;53.262;10.408;2022-07-30T09:34:29;30.90;99.90
11505;DHT22;5809;53.262;10.408;2022-07-30T09:36:57;31.40;99.90
11505;DHT22;5809;53.262;10.408;2022-07-30T09:39:30;31.30;99.90
11505;DHT22;5809;53.262;10.408;2022-07-30T09:41:57;31.40;99.90
11505;DHT22;5809;53.262;10.408;2022-07-30T09:44:26;30.80;99.90
11505;DHT22;5809;53.262;10.408;2022-07-30T09:46:55;30.80;99.90
11505;DHT22;5809;53.262;10.408;2022-07-30T09:49:23;30.60;99.90
11505;DHT22;5809;53.262;10.408;2022-07-30T09:51:51;30.00;99.90
11505;DHT22;5809;53.262;10.408;2022-07-30T10:04:25;29.10;99.90
11505;DHT22;5809;53.262;10.408;2022-07-30T10:06:52;29.60;99.90
11505;DHT22;5809;53.262;10.408;2022-07-30T10:09:26;29.60;99.90
11505;DHT22;5809;53.262;10.408;2022-07-30T10:11:56;30.10;99.90
11505;DHT22;5809;53.262;10.408;2022-07-30T10:14:26;30.80;99.90
11505;DHT22;5809;53.262;10.408;2022-07-30T10:16:54;31.30;99.90
11505;DHT22;5809;53.262;10.408;2022-07-30T10:19:22;32.10;99.90
11505;DHT22;5809;53.262;10.408;2022-07-30T10:21:49;32.40;99.90
11505;DHT22;5809;53.262;10.408;2022-07-30T10:24:18;32.10;99.90
11505;DHT22;5809;53.262;10.408;2022-07-30T10:26:46;31.40;99.90
11505;DHT22;5809;53.262;10.408;2022-07-30T10:29:16;31.10;99.90
11505;DHT22;5809;53.262;10.408;2022-07-30T10:31:44;30.90;99.90
11505;DHT22;5809;53.262;10.408;2022-07-30T10:34:12;30.30;99.90
11505;DHT22;5809;53.262;10.408;2022-07-30T10:36:40;29.70;99.90
11505;DHT22;5809;53.262;10.408;2022-07-30T10:39:11;29.30;99.90
11505;DHT22;5809;53.262;10.408;2022-07-30T10:41:46;28.80;99.90
11505;DHT22;5809;53.262;10.408;2022-07-30T10:46:59;28.40;99.90
11505;DHT22;5809;53.262;10.408;2022-07-30T10:49:28;28.30;99.90
11505;DHT22;5809;53.262;10.408;2022-07-30T10:57:04;29.20;99.90
11505;DHT22;5809;53.262;10.408;2022-07-30T11:02:32;29.70;99.90
11505;DHT22;5809;53.262;10.408;2022-07-30T11:05:22;29.90;99.90
11505;DHT22;5809;53.262;10.408;2022-07-30T11:07:50;29.80;99.90
11505;DHT22;5809;53.262;10.408;2022-07-30T11:10:37;29.20;99.90
11505;DHT22;5809;53.262;10.408;2022-07-30T11:13:05;28.60;99.90
11505;DHT22;5809;53.262;10.408;2022-07-30T11:15:50;28.60;99.90
11505;DHT22;5809;53.262;10.408;2022-07-30T11:18:19;29.40;99.90
11505;DHT22;5809;53.262;10.408;2022-07-30T11:21:17;30.80;99.90
11505;DHT22;5809;53.262;10.408;2022-07-30T11:23:45;31.90;99.40
11505;DHT22;5809;53.262;10.408;2022-07-30T11:26:46;32.40;95.20
11505;DHT22;5809;53.262;10.408;2022-07-30T11:29:34;32.30;94.20
11505;DHT22;5809;53.262;10.408;2022-07-30T11:32:23;33.20;93.60
11505;DHT22;5809;53.262;10.408;2022-07-30T11:34:54;34.20;91.20
11505;DHT22;5809;53.262;10.408;2022-07-30T11:37:54;35.40;90.40
11505;DHT22;5809;53.262;10.408;2022-07-30T11:40:22;35.20;86.80
11505;DHT22;5809;53.262;10.408;2022-07-30T11:42:50;35.00;85.60
11505;DHT22;5809;53.262;10.408;2022-07-30T11:45:22;34.70;85.20
11505;DHT22;5809;53.262;10.408;2022-07-30T11:47:53;32.80;85.80
11505;DHT22;5809;53.262;10.408;2022-07-30T11:50:23;31.60;87.90
11505;DHT22;5809;53.262;10.408;2022-07-30T11:52:52;31.00;91.00
11505;DHT22;5809;53.262;10.408;2022-07-30T11:55:23;30.80;95.30
11505;DHT22;5809;53.262;10.408;2022-07-30T11:57:51;30.90;96.00
11505;DHT22;5809;53.262;10.408;2022-07-30T12:02:46;32.00;94.90
11505;DHT22;5809;53.262;10.408;2022-07-30T12:05:14;32.10;94.90
11505;DHT22;5809;53.262;10.408;2022-07-30T12:07:43;32.20;94.00
11505;DHT22;5809;53.262;10.408;2022-07-30T12:10:17;31.90;94.50
11505;DHT22;5809;53.262;10.408;2022-07-30T12:12:45;31.60;93.50
11505;DHT22;5809;53.262;10.408;2022-07-30T12:15:27;31.40;93.00
11505;DHT22;5809;53.262;10.408;2022-07-30T12:17:55;31.40;94.60
11505;DHT22;5809;53.262;10.408;2022-07-30T12:20:22;31.80;95.10
11505;DHT22;5809;53.262;10.408;2022-07-30T12:22:50;31.70;94.60
11505;DHT22;5809;53.262;10.408;2022-07-30T12:25:18;31.70;92.90
11505;DHT22;5809;53.262;10.408;2022-07-30T12:27:46;31.80;93.60
11505;DHT22;5809;53.262;10.408;2022-07-30T12:30:15;32.70;94.10
11505;DHT22;5809;53.262;10.408;2022-07-30T12:32:43;33.70;90.30
11505;DHT22;5809;53.262;10.408;2022-07-30T12:35:10;33.70;90.90
11505;DHT22;5809;53.262;10.408;2022-07-30T12:37:38;34.80;90.20
11505;DHT22;5809;53.262;10.408;2022-07-30T12:40:09;35.80;85.00
11505;DHT22;5809;53.262;10.408;2022-07-30T12:42:48;36.20;80.30
11505;DHT22;5809;53.262;10.408;2022-07-30T12:45:27;36.90;76.70
11505;DHT22;5809;53.262;10.408;2022-07-30T12:47:54;37.20;75.40
11505;DHT22;5809;53.262;10.408;2022-07-30T12:50:22;36.50;74.90
11505;DHT22;5809;53.262;10.408;2022-07-30T12:52:51;35.40;75.90
11505;DHT22;5809;53.262;10.408;2022-07-30T12:55:28;36.00;75.90
11505;DHT22;5809;53.262;10.408;2022-07-30T12:57:57;36.40;74.50
11505;DHT22;5809;53.262;10.408;2022-07-30T13:00:27;36.40;74.60
11505;DHT22;5809;53.262;10.408;2022-07-30T13:02:54;35.70;74.30
11505;DHT22;5809;53.262;10.408;2022-07-30T13:05:43;34.70;75.20
11505;DHT22;5809;53.262;10.408;2022-07-30T13:08:10;34.90;76.10
11505;DHT22;5809;53.262;10.408;2022-07-30T13:10:52;34.90;75.00
11505;DHT22;5809;53.262;10.408;2022-07-30T13:15:56;36.00;69.90
11505;DHT22;5809;53.262;10.408;2022-07-30T13:18:24;36.90;70.00
11505;DHT22;5809;53.262;10.408;2022-07-30T13:23:18;36.80;67.70
11505;DHT22;5809;53.262;10.408;2022-07-30T13:25:46;36.00;69.60
11505;DHT22;5809;53.262;10.408;2022-07-30T13:30:40;36.60;67.20
11505;DHT22;5809;53.262;10.408;2022-07-30T13:35:35;36.50;65.60
11505;DHT22;5809;53.262;10.408;2022-07-30T13:40:31;35.50;68.30
11505;DHT22;5809;53.262;10.408;2022-07-30T13:43:00;35.20;68.40
11505;DHT22;5809;53.262;10.408;2022-07-30T13:47:55;36.20;69.30
11505;DHT22;5809;53.262;10.408;2022-07-30T13:50:22;36.50;68.00
11505;DHT22;5809;53.262;10.408;2022-07-30T13:52:49;37.20;66.90
11505;DHT22;5809;53.262;10.408;2022-07-30T13:55:16;37.40;67.10
11505;DHT22;5809;53.262;10.408;2022-07-30T13:57:43;37.70;66.70
11505;DHT22;5809;53.262;10.408;2022-07-30T14:00:12;38.00;66.50
11505;DHT22;5809;53.262;10.408;2022-07-30T14:05:07;36.70;65.80
11505;DHT22;5809;53.262;10.408;2022-07-30T14:07:35;36.90;65.00
11505;DHT22;5809;53.262;10.408;2022-07-30T14:10:03;37.20;64.50
11505;DHT22;5809;53.262;10.408;2022-07-30T14:12:31;36.30;65.90
11505;DHT22;5809;53.262;10.408;2022-07-30T14:17:27;36.60;65.90
11505;DHT22;5809;53.262;10.408;2022-07-30T14:19:54;36.80;64.20
11505;DHT22;5809;53.262;10.408;2022-07-30T14:22:21;37.40;64.50
11505;DHT22;5809;53.262;10.408;2022-07-30T14:24:48;37.20;65.30
11505;DHT22;5809;53.262;10.408;2022-07-30T14:27:15;37.70;64.70
11505;DHT22;5809;53.262;10.408;2022-07-30T14:29:45;37.80;63.00
11505;DHT22;5809;53.262;10.408;2022-07-30T14:32:12;38.10;62.50
11505;DHT22;5809;53.262;10.408;2022-07-30T14:34:40;38.40;61.90
11505;DHT22;5809;53.262;10.408;2022-07-30T14:37:07;38.20;60.90
11505;DHT22;5809;53.262;10.408;2022-07-30T14:39:34;37.80;61.20
11505;DHT22;5809;53.262;10.408;2022-07-30T14:42:02;36.90;60.90
11505;DHT22;5809;53.262;10.408;2022-07-30T14:44:30;36.80;62.40
11505;DHT22;5809;53.262;10.408;2022-07-30T14:49:25;36.70;62.10
11505;DHT22;5809;53.262;10.408;2022-07-30T14:54:20;37.10;60.00
11505;DHT22;5809;53.262;10.408;2022-07-30T14:59:15;35.70;61.30
11505;DHT22;5809;53.262;10.408;2022-07-30T15:04:09;33.20;63.00
11505;DHT22;5809;53.262;10.408;2022-07-30T15:06:37;32.60;66.00
11505;DHT22;5809;53.262;10.408;2022-07-30T15:09:07;32.20;67.10
11505;DHT22;5809;53.262;10.408;2022-07-30T15:11:34;31.90;67.20
11505;DHT22;5809;53.262;10.408;2022-07-30T15:14:01;31.50;69.10
11505;DHT22;5809;53.262;10.408;2022-07-30T15:16:28;31.50;69.60
11505;DHT22;5809;53.262;10.408;2022-07-30T15:18:55;31.30;70.70
11505;DHT22;5809;53.262;10.408;2022-07-30T15:21:22;31.00;72.50
11505;DHT22;5809;53.262;10.408;2022-07-30T15:23:49;31.00;74.20
11505;DHT22;5809;53.262;10.408;2022-07-30T15:26:17;31.00;74.40
11505;DHT22;5809;53.262;10.408;2022-07-30T15:28:44;30.70;75.60
11505;DHT22;5809;53.262;10.408;2022-07-30T15:31:11;30.70;75.70
11505;DHT22;5809;53.262;10.408;2022-07-30T15:33:38;30.70;76.90
11505;DHT22;5809;53.262;10.408;2022-07-30T15:36:07;30.70;78.10
11505;DHT22;5809;53.262;10.408;2022-07-30T15:38:35;30.80;78.10
11505;DHT22;5809;53.262;10.408;2022-07-30T15:45:58;30.40;79.30
11505;DHT22;5809;53.262;10.408;2022-07-30T15:53:20;29.70;80.50
11505;DHT22;5809;53.262;10.408;2022-07-30T16:03:10;28.10;80.80
11505;DHT22;5809;53.262;10.408;2022-07-30T16:08:05;27.60;83.50
11505;DHT22;5809;53.262;10.408;2022-07-30T16:12:59;27.20;86.60
11505;DHT22;5809;53.262;10.408;2022-07-30T16:20:21;26.50;92.40
11505;DHT22;5809;53.262;10.408;2022-07-30T16:25:16;26.00;94.60
11505;DHT22;5809;53.262;10.408;2022-07-30T16:30:11;25.20;98.30
11505;DHT22;5809;53.262;10.408;2022-07-30T16:35:08;24.80;99.90
11505;DHT22;5809;53.262;10.408;2022-07-30T16:37:35;24.30;99.90
11505;DHT22;5809;53.262;10.408;2022-07-30T16:40:02;23.70;99.90
11505;DHT22;5809;53.262;10.408;2022-07-30T16:42:29;23.00;99.90
11505;DHT22;5809;53.262;10.408;2022-07-30T16:44:56;22.80;99.90
11505;DHT22;5809;53.262;10.408;2022-07-30T16:47:23;22.70;99.90
11505;DHT22;5809;53.262;10.408;2022-07-30T16:49:50;22.80;99.90
11505;DHT22;5809;53.262;10.408;2022-07-30T16:54:46;22.80;99.90
11505;DHT22;5809;53.262;10.408;2022-07-30T16:59:40;22.70;99.90
11505;DHT22;5809;53.262;10.408;2022-07-30T17:04:34;22.90;99.90
11505;DHT22;5809;53.262;10.408;2022-07-30T17:07:03;22.90;99.90
11505;DHT22;5809;53.262;10.408;2022-07-30T17:19:20;22.40;99.90
11505;DHT22;5809;53.262;10.408;2022-07-30T17:21:47;22.40;99.90
11505;DHT22;5809;53.262;10.408;2022-07-30T17:24:15;22.40;99.90
11505;DHT22;5809;53.262;10.408;2022-07-30T17:36:36;22.10;99.90
11505;DHT22;5809;53.262;10.408;2022-07-30T17:39:03;21.80;99.90
11505;DHT22;5809;53.262;10.408;2022-07-30T17:43:59;21.70;99.90
11505;DHT22;5809;53.262;10.408;2022-07-30T17:48:55;21.70;99.90
11505;DHT22;5809;53.262;10.408;2022-07-30T17:53:49;21.30;99.90
11505;DHT22;5809;53.262;10.408;2022-07-30T17:58:44;21.40;99.90
11505;DHT22;5809;53.262;10.408;2022-07-30T18:01:12;21.50;99.90
11505;DHT22;5809;53.262;10.408;2022-07-30T18:03:39;21.50;99.90
11505;DHT22;5809;53.262;10.408;2022-07-30T18:06:06;21.60;99.90
11505;DHT22;5809;53.262;10.408;2022-07-30T18:11:00;21.70;99.90
11505;DHT22;5809;53.262;10.408;2022-07-30T18:15:54;21.90;99.90
11505;DHT22;5809;53.262;10.408;2022-07-30T18:23:18;21.60;99.90
11505;DHT22;5809;53.262;10.408;2022-07-30T18:30:40;21.50;99.90
11505;DHT22;5809;53.262;10.408;2022-07-30T18:33:07;21.60;99.90
11505;DHT22;5809;53.262;10.408;2022-07-30T18:38:03;21.60;99.90
11505;DHT22;5809;53.262;10.408;2022-07-30T18:42:58;21.60;99.90
11505;DHT22;5809;53.262;10.408;2022-07-30T18:45:25;21.60;99.90
11505;DHT22;5809;53.262;10.408;2022-07-30T18:50:22;21.30;99.90
11505;DHT22;5809;53.262;10.408;2022-07-30T19:05:09;21.10;99.90
11505;DHT22;5809;53.262;10.408;2022-07-30T19:10:06;20.90;99.90
11505;DHT22;5809;53.262;10.408;2022-07-30T19:12:33;20.80;99.90
11505;DHT22;5809;53.262;10.408;2022-07-30T19:15:00;20.80;99.90
11505;DHT22;5809;53.262;10.408;2022-07-30T19:17:27;20.70;99.90
11505;DHT22;5809;53.262;10.408;2022-07-30T19:19:54;20.70;99.90
11505;DHT22;5809;53.262;10.408;2022-07-30T19:24:48;20.60;99.90
11505;DHT22;5809;53.262;10.408;2022-07-30T19:27:17;20.60;99.90
11505;DHT22;5809;53.262;10.408;2022-07-30T19:29:44;20.60;99.90
11505;DHT22;5809;53.262;10.408;2022-07-30T19:32:11;20.60;99.90
11505;DHT22;5809;53.262;10.408;2022-07-30T19:34:39;20.50;99.90
11505;DHT22;5809;53.262;10.408;2022-07-30T19:39:35;20.50;99.90
11505;DHT22;5809;53.262;10.408;2022-07-30T19:42:02;20.50;99.90
11505;DHT22;5809;53.262;10.408;2022-07-30T19:44:31;20.40;99.90
11505;DHT22;5809;53.262;10.408;2022-07-30T19:49:25;20.30;99.90
11505;DHT22;5809;53.262;10.408;2022-07-30T19:54:20;20.20;99.90
11505;DHT22;5809;53.262;10.408;2022-07-30T19:56:47;20.20;99.90
11505;DHT22;5809;53.262;10.408;2022-07-30T19:59:14;20.10;99.90
11505;DHT22;5809;53.262;10.408;2022-07-30T20:01:44;20.10;99.90
11505;DHT22;5809;53.262;10.408;2022-07-30T20:11:36;20.00;99.90
11505;DHT22;5809;53.262;10.408;2022-07-30T20:16:30;20.00;99.90
11505;DHT22;5809;53.262;10.408;2022-07-30T20:18:58;20.00;99.90
11505;DHT22;5809;53.262;10.408;2022-07-30T20:26:20;20.00;99.90